Milan/Linate Airport

Airport
ICAO code: 
LIML
IATA Code: 
LIN
Summary
ICAO Region: 
EUR
Territory: 
Location: 
Linate, Lombardy
Serving: 
Milan
Elevation: 
353 ft
Coordinates: 
Aerial View: 
45° 26' 39.17" N, 9° 16' 38.987" E
Metar
Observation
LIML 272320Z 23003KT 160V310 5000 -RA BR BKN040 07/06 Q0992 NOSIG
Station
Milano / Linate
Date/Time
2021-11-27 23:20:00
Wind direction
230°
Wind speed
03 kts
Lowest cloud amount
broken clouds
Temperature
7°C
Dew point
6°C
Humidity
93%
QNH
992 hPa
Weather condition
n/a

International airport serving Milan and the Po Valley of northern Italy. Milan's principal airport is Malpensa.

Climatology

Humid “subtropical” climate (Köppen climate classification Cfa) - characterized by hot, humid summers and cool winters. Significant amounts of precipitation occur in all seasons in most areas. Winter rainfall (and sometimes snowfall) is associated with large storms that the westerlies steer from west to east. Most summer rainfall occurs during thunderstorms.

Runways

Designator Length Width Surface Rops
17/35 601 22 BIT Yes/Yes
18/36 2440 60 ASP Yes/Yes
Airport map: 
Aerial View: 

Accidents and Serious Incidents at or in the vicinity of LIML

SKYbrary Partners:

Safety knowledge contributed by: